CheckWX is a tool to help pilots better visualize weather data.  It is not intended as a substitute for an official pre-flight weather briefing.

10:06:06 UTC

KGRI TAF
Central Nebraska Regional Airport
Grand Island, Nebraska, USA
KGRI 260636Z 2607/2706 12006KT P6SM VCTS SCT100CB BKN250 WS010/17045KT FM261200 18010KT P6SM FEW100 SCT250 FM261800 17014G20KT P6SM FEW080 FEW250

Jun-26@
07:00 UTC

Jun-26 @ 07:00 UTC

Jun-26@
12:00 UTC

Jun-26 @ 12:00 UTC

KGRI 260636Z 2607/2706 12006KT P6SM VCTS SCT100CB BKN250 WS010/17045KT
Wind
  • 120° at 6 KTS
Conditions
Area Thunderstorm
Cloud Levels
  • Scattered at 10,000' AGL
  • Broken at 25,000' AGL

Jun-26@
12:00 UTC

Jun-26 @ 12:00 UTC

Jun-26@
18:00 UTC

Jun-26 @ 18:00 UTC

FM261200 18010KT P6SM FEW100 SCT250

From

From Standard forecast or significant change

Wind
  • 180° at 10 KTS
Cloud Levels
  • Few at 10,000' AGL
  • Scattered at 25,000' AGL

Jun-26@
18:00 UTC

Jun-26 @ 18:00 UTC

Jun-27@
06:00 UTC

Jun-27 @ 06:00 UTC

FM261800 17014G20KT P6SM FEW080 FEW250

From

From Standard forecast or significant change

Wind
  • 170° at 14 KTS
  • {Gusting to 20 KTS
Cloud Levels
  • Few at 8,000' AGL
  • Few at 25,000' AGL